Time;durP1;ratioP1;P1;durP2;ratioP2;P2;SDS_P1;SDS_P2;PMS_P1;PMS_P2;Temp;Humidity;BMP_temperature;BMP_pressure;BME280_temperature;BME280_humidity;BME280_pressure;Samples;Min_cycle;Max_cycle;Signal;HPM_P1;HPM_P2
2022/09/10 00:01:35;;;;;;;;;11.00;11.00;;;;;26.84;62.92;98944.63;5082381;28;8896;-77
2022/09/10 00:04:09;;;;;;;;;10.40;8.60;;;;;26.94;62.87;98951.00;5066541;28;9621;-76
2022/09/10 00:06:39;;;;;;;;;12.00;11.00;;;;;26.75;62.76;98954.25;5032003;28;8828;-77
2022/09/10 00:09:09;;;;;;;;;9.60;8.60;;;;;26.85;62.40;98951.72;5046579;28;8858;-77
2022/09/10 00:11:40;;;;;;;;;9.80;9.80;;;;;26.88;62.14;98958.63;5029830;28;8955;-77
2022/09/10 00:14:12;;;;;;;;;8.00;7.80;;;;;26.91;61.54;98959.25;5026627;28;8998;-75
2022/09/10 00:16:40;;;;;;;;;11.20;10.00;;;;;26.62;62.25;98966.88;5026166;28;8887;-77
2022/09/10 00:19:09;;;;;;;;;7.60;7.60;;;;;26.33;63.39;98969.03;5029923;28;8870;-80
2022/09/10 00:21:39;;;;;;;;;8.60;8.60;;;;;26.31;63.17;98969.13;5046732;28;8854;-78
2022/09/10 00:24:08;;;;;;;;;12.40;11.60;;;;;25.48;66.54;98984.03;5029493;28;8961;-80
2022/09/10 00:26:38;;;;;;;;;9.60;9.60;;;;;24.78;69.83;98991.56;5036817;28;8933;-78
2022/09/10 00:29:09;;;;;;;;;9.20;8.80;;;;;24.38;72.88;98984.41;5026901;28;8906;-78
2022/09/10 00:31:38;;;;;;;;;13.00;11.40;;;;;24.13;74.57;98988.69;5068018;28;8959;-77
2022/09/10 00:34:07;;;;;;;;;14.80;12.20;;;;;23.89;75.89;98987.63;5066146;28;8852;-77
2022/09/10 00:36:39;;;;;;;;;12.00;11.40;;;;;23.92;75.55;98985.63;5051629;28;9590;-76
2022/09/10 00:39:09;;;;;;;;;14.00;12.40;;;;;23.96;75.77;98988.94;5068472;28;8854;-76
2022/09/10 00:41:39;;;;;;;;;10.00;10.00;;;;;23.72;76.90;98988.69;5068709;28;9607;-76
2022/09/10 00:44:46;;;;;;;;;10.20;10.00;;;;;23.96;77.22;98988.09;5068536;28;8862;-77
2022/09/10 00:47:19;;;;;;;;;10.60;10.60;;;;;23.53;79.92;98981.88;5103995;28;8855;-78
2022/09/10 00:49:51;;;;;;;;;9.60;8.40;;;;;23.09;83.34;98982.81;5087414;28;8859;-77
2022/09/10 00:52:22;;;;;;;;;15.40;14.80;;;;;22.85;85.27;98978.97;5081089;28;8850;-77
2022/09/10 00:54:51;;;;;;;;;11.40;10.00;;;;;22.95;84.51;98980.97;5067229;28;8881;-76
2022/09/10 00:57:22;;;;;;;;;13.40;13.40;;;;;22.88;85.78;98976.13;5067850;28;8861;-76
2022/09/10 00:59:56;;;;;;;;;15.40;14.00;;;;;23.11;84.24;98977.41;5048748;28;8856;-75
2022/09/10 01:02:25;;;;;;;;;14.80;14.80;;;;;23.22;83.21;98985.59;5065478;28;8847;-76
2022/09/10 01:04:55;;;;;;;;;9.40;7.60;;;;;23.52;81.62;98974.00;4983077;28;8863;-79
2022/09/10 01:07:27;;;;;;;;;13.80;12.80;;;;;23.87;79.12;98978.88;5045390;28;8972;-78
2022/09/10 01:09:58;;;;;;;;;13.40;13.40;;;;;23.54;81.15;98977.41;5067322;28;8853;-79
2022/09/10 01:12:45;;;;;;;;;14.60;13.80;;;;;23.64;81.30;98967.88;5018813;28;8842;-78
2022/09/10 01:15:27;;;;;;;;;16.20;15.20;;;;;23.41;82.44;98977.31;5050081;28;8830;-79
2022/09/10 01:18:12;;;;;;;;;16.20;14.00;;;;;23.41;83.39;98972.00;5066402;28;8849;-75
2022/09/10 01:20:56;;;;;;;;;13.40;13.20;;;;;23.62;82.04;98969.78;5067212;28;9688;-78
2022/09/10 01:23:56;;;;;;;;;19.80;16.60;;;;;23.48;82.85;98960.00;5046978;28;8882;-76
2022/09/10 01:26:48;;;;;;;;;14.00;14.00;;;;;23.48;82.77;98969.81;5046039;28;8870;-74
2022/09/10 01:29:27;;;;;;;;;17.40;17.40;;;;;24.13;79.06;98961.22;5046705;28;8855;-76
2022/09/10 01:32:05;;;;;;;;;17.60;17.40;;;;;23.78;81.02;98969.66;5064506;28;8853;-74
2022/09/10 01:34:40;;;;;;;;;20.00;20.00;;;;;23.67;81.09;98962.38;5051232;28;9600;-75
2022/09/10 01:37:20;;;;;;;;;19.40;18.60;;;;;23.47;82.63;98965.44;5066231;28;8872;-77
2022/09/10 01:39:50;;;;;;;;;24.60;23.60;;;;;23.77;80.87;98964.44;5083427;28;8838;-75
2022/09/10 01:42:20;;;;;;;;;21.00;20.60;;;;;23.65;81.58;98958.94;5082573;28;8829;-75
2022/09/10 01:44:52;;;;;;;;;18.80;18.40;;;;;23.70;81.49;98963.97;5084114;28;8900;-74
2022/09/10 01:47:42;;;;;;;;;24.20;19.60;;;;;24.12;79.39;98957.69;5050497;28;8863;-75
2022/09/10 01:50:23;;;;;;;;;23.40;23.40;;;;;24.08;78.99;98964.19;5083839;28;8964;-75
2022/09/10 01:53:10;;;;;;;;;21.60;19.00;;;;;24.58;76.40;98953.78;5050944;28;8848;-75
2022/09/10 01:55:47;;;;;;;;;23.00;20.40;;;;;24.76;75.42;98950.81;5082871;28;8884;-78
2022/09/10 01:58:21;;;;;;;;;23.00;22.80;;;;;24.77;74.92;98952.53;5051667;28;8846;-76
2022/09/10 02:01:10;;;;;;;;;19.80;19.80;;;;;24.31;76.89;98951.16;5068754;28;8947;-76
2022/09/10 02:03:42;;;;;;;;;16.80;16.40;;;;;23.83;79.26;98958.75;5085285;28;8896;-76
2022/09/10 02:06:17;;;;;;;;;21.20;19.60;;;;;24.03;79.09;98960.13;5085372;28;8916;-76
2022/09/10 02:08:52;;;;;;;;;18.20;17.60;;;;;24.04;78.76;98957.34;5050847;28;8954;-74
2022/09/10 02:11:20;;;;;;;;;17.80;17.60;;;;;23.96;79.26;98962.31;5085022;28;8888;-74
2022/09/10 02:13:52;;;;;;;;;16.40;15.40;;;;;24.20;77.66;98962.53;5084926;28;8880;-76
2022/09/10 02:16:51;;;;;;;;;18.00;16.40;;;;;24.29;76.97;98969.03;5064449;28;8847;-78
2022/09/10 02:19:20;;;;;;;;;15.80;14.20;;;;;24.40;76.38;98971.00;5066571;28;8843;-78
2022/09/10 02:21:55;;;;;;;;;19.20;18.00;;;;;24.23;77.28;98972.09;5066760;28;8968;-75
2022/09/10 02:24:26;;;;;;;;;16.40;15.60;;;;;24.48;76.15;98969.53;5067222;28;8969;-75
2022/09/10 02:26:54;;;;;;;;;18.20;16.60;;;;;24.62;75.08;98971.28;5066223;28;8872;-78
2022/09/10 02:29:23;;;;;;;;;18.60;17.20;;;;;24.86;73.85;98963.44;5049806;28;8894;-76
2022/09/10 02:31:53;;;;;;;;;17.40;14.60;;;;;25.05;72.48;98959.50;5048205;28;8921;-74
2022/09/10 02:34:22;;;;;;;;;17.60;16.60;;;;;25.32;71.00;98974.56;5065926;28;8856;-77
2022/09/10 02:36:50;;;;;;;;;16.40;14.60;;;;;25.43;70.17;98962.16;5065933;28;8860;-74
2022/09/10 02:39:19;;;;;;;;;17.40;16.80;;;;;25.10;71.88;98960.00;5065790;28;8855;-77
2022/09/10 02:41:54;;;;;;;;;19.20;18.00;;;;;25.28;70.98;98974.75;5065666;28;8893;-75
2022/09/10 02:44:23;;;;;;;;;16.20;15.20;;;;;25.58;70.08;98964.69;5065849;28;9590;-74
2022/09/10 02:46:53;;;;;;;;;17.00;14.40;;;;;25.83;69.05;98964.59;5049075;28;8855;-74
2022/09/10 02:49:22;;;;;;;;;18.20;17.20;;;;;26.02;67.98;98966.81;5064491;28;8872;-76
2022/09/10 02:51:51;;;;;;;;;18.80;16.00;;;;;26.18;67.38;98971.88;5048901;28;8875;-78
2022/09/10 02:54:21;;;;;;;;;21.20;18.00;;;;;26.22;66.92;98980.53;5060264;28;8978;-77
2022/09/10 02:56:49;;;;;;;;;17.20;16.00;;;;;26.30;66.44;98967.44;5065861;28;8862;-77
2022/09/10 02:59:21;;;;;;;;;21.60;20.80;;;;;26.45;65.61;98970.78;5067140;28;8919;-75
2022/09/10 03:01:50;;;;;;;;;19.20;18.20;;;;;26.53;64.89;98971.03;5067126;28;8854;-75
2022/09/10 03:04:20;;;;;;;;;26.60;21.80;;;;;26.53;64.66;98972.88;5055031;28;8858;-76
2022/09/10 03:06:49;;;;;;;;;23.00;18.40;;;;;26.48;64.78;98981.22;5066885;28;8883;-76
2022/09/10 03:09:17;;;;;;;;;25.00;23.60;;;;;26.55;64.47;98976.28;5084116;28;8846;-77
2022/09/10 03:11:47;;;;;;;;;33.00;30.80;;;;;26.59;64.33;98977.75;5068556;28;8850;-75
2022/09/10 03:14:19;;;;;;;;;23.60;22.40;;;;;26.55;64.66;98984.31;5067115;28;8827;-75
2022/09/10 03:16:47;;;;;;;;;25.20;23.80;;;;;26.63;63.92;98987.28;5069466;28;8863;-74
2022/09/10 03:19:16;;;;;;;;;20.80;20.40;;;;;26.67;64.16;98991.41;5050136;28;8850;-75
2022/09/10 03:21:46;;;;;;;;;20.60;19.40;;;;;26.57;64.24;98993.06;5068099;28;8854;-75
2022/09/10 03:24:15;;;;;;;;;24.20;21.60;;;;;26.51;63.98;98990.84;5067105;28;8854;-75
2022/09/10 03:26:46;;;;;;;;;21.40;20.60;;;;;26.40;64.68;98992.50;5083185;28;8886;-78
2022/09/10 03:29:18;;;;;;;;;22.40;22.00;;;;;26.52;64.18;98996.09;5114567;27;8991;-75
2022/09/10 03:31:47;;;;;;;;;22.60;19.20;;;;;26.68;64.00;98997.63;5084026;28;8948;-75
2022/09/10 03:34:16;;;;;;;;;22.00;21.00;;;;;25.77;66.79;99004.28;5083584;28;8874;-75
2022/09/10 03:36:47;;;;;;;;;21.80;20.00;;;;;25.41;68.54;98997.94;5064611;28;8850;-76
2022/09/10 03:39:17;;;;;;;;;22.00;21.00;;;;;25.49;68.23;98999.06;5066694;28;8854;-75
2022/09/10 03:41:46;;;;;;;;;23.60;21.60;;;;;25.45;67.88;98997.59;5048366;28;8878;-75
2022/09/10 03:44:16;;;;;;;;;22.60;21.00;;;;;25.71;67.24;99008.25;5067014;28;8876;-74
2022/09/10 03:46:46;;;;;;;;;29.00;27.60;;;;;25.92;66.93;99011.22;5086380;28;9615;-76
2022/09/10 03:49:17;;;;;;;;;44.00;36.50;;;;;26.16;66.04;99010.38;5083322;28;8873;-75
2022/09/10 03:51:48;;;;;;;;;22.60;22.00;;;;;26.31;65.67;99011.91;5082256;28;8848;-75
2022/09/10 03:54:18;;;;;;;;;18.40;17.80;;;;;26.49;64.37;99024.88;5111762;27;8870;-76
2022/09/10 03:56:47;;;;;;;;;15.80;15.80;;;;;26.31;64.24;99022.59;5083172;28;8862;-75
2022/09/10 03:59:16;;;;;;;;;26.80;22.60;;;;;25.89;65.19;99022.06;5067315;28;8872;-75
2022/09/10 04:01:46;;;;;;;;;22.80;22.60;;;;;26.23;64.40;99012.47;5084632;28;8866;-74
2022/09/10 04:04:15;;;;;;;;;73.67;63.00;;;;;26.00;64.58;99013.31;5068009;28;8868;-75
2022/09/10 04:06:44;;;;;;;;;34.80;30.40;;;;;25.53;66.41;99022.91;5083658;28;9099;-74
2022/09/10 04:09:15;;;;;;;;;34.20;30.60;;;;;25.56;66.63;99018.19;5033729;28;8850;-75
2022/09/10 04:11:44;;;;;;;;;36.60;28.80;;;;;25.38;66.78;99015.00;5082490;28;8832;-76
2022/09/10 04:14:14;;;;;;;;;32.40;30.60;;;;;25.55;66.40;99012.97;5065959;28;8854;-74
2022/09/10 04:16:43;;;;;;;;;23.20;22.20;;;;;25.78;65.89;99005.97;5105039;28;8859;-74
2022/09/10 04:19:14;;;;;;;;;32.60;30.60;;;;;25.99;64.77;99000.91;5103580;27;8922;-74
2022/09/10 04:21:43;;;;;;;;;31.80;28.80;;;;;26.10;64.35;98994.78;5088097;27;9632;-74
2022/09/10 04:24:12;;;;;;;;;26.80;25.80;;;;;26.12;64.24;98996.38;5105065;27;8871;-75
2022/09/10 04:26:44;;;;;;;;;24.80;24.80;;;;;26.20;63.84;98994.00;5122757;27;8869;-74
2022/09/10 04:29:15;;;;;;;;;31.80;31.40;;;;;26.15;64.09;98990.81;5104886;27;9034;-74
2022/09/10 04:31:46;;;;;;;;;38.20;34.20;;;;;26.29;63.95;98989.78;5087870;27;8842;-74
2022/09/10 04:34:17;;;;;;;;;35.40;31.80;;;;;26.31;63.97;99006.56;5087422;28;8886;-76
2022/09/10 04:36:46;;;;;;;;;34.60;32.00;;;;;26.25;63.75;99010.53;5104872;27;8888;-76
2022/09/10 04:39:14;;;;;;;;;38.00;34.20;;;;;25.34;66.76;99013.50;5138723;27;8862;-75
2022/09/10 04:41:44;;;;;;;;;33.00;31.80;;;;;25.62;66.62;99019.59;5087022;27;9041;-78
2022/09/10 04:44:12;;;;;;;;;34.20;31.40;;;;;25.86;65.75;99022.31;5138217;27;8953;-76
2022/09/10 04:46:42;;;;;;;;;42.25;37.00;;;;;25.27;68.28;99029.13;5104282;27;8861;-75
2022/09/10 04:49:11;;;;;;;;;42.00;35.00;;;;;25.26;67.93;99021.22;5120952;27;8846;-75
2022/09/10 04:51:40;;;;;;;;;46.50;36.75;;;;;24.94;69.41;99021.59;5141132;27;9569;-77
2022/09/10 04:54:08;;;;;;;;;40.00;35.50;;;;;24.58;71.40;99022.25;5089345;28;8854;-76
2022/09/10 04:56:38;;;;;;;;;38.25;35.00;;;;;24.02;74.25;99023.16;5067185;28;8835;-75
2022/09/10 04:59:09;;;;;;;;;45.50;36.25;;;;;24.23;73.70;99018.25;5064981;28;8858;-78
2022/09/10 05:01:38;;;;;;;;;41.50;37.00;;;;;24.37;72.73;99028.03;5084334;28;8915;-75
2022/09/10 05:04:06;;;;;;;;;42.00;35.50;;;;;24.74;71.12;99027.41;5082288;28;8880;-74
2022/09/10 05:06:37;;;;;;;;;39.50;35.75;;;;;25.03;70.00;99028.13;5115901;27;8885;-76
2022/09/10 05:09:10;;;;;;;;;39.25;34.75;;;;;24.58;71.57;99030.25;5064981;28;8850;-77
2022/09/10 05:11:40;;;;;;;;;40.00;36.25;;;;;24.53;71.67;99038.56;5066327;28;9081;-75
2022/09/10 05:14:11;;;;;;;;;41.75;33.50;;;;;24.84;70.64;99025.81;5065901;28;9572;-76
2022/09/10 05:16:40;;;;;;;;;48.50;39.25;;;;;24.82;69.86;99028.63;5048304;28;8905;-77
2022/09/10 05:19:16;;;;;;;;;45.50;35.75;;;;;24.87;70.04;99038.97;5048515;28;8846;-74
2022/09/10 05:21:57;;;;;;;;;47.50;38.25;;;;;24.71;70.62;99039.16;5064440;28;8862;-75
2022/09/10 05:24:26;;;;;;;;;42.00;36.75;;;;;24.89;69.65;99042.38;5066426;28;8986;-75
2022/09/10 05:26:55;;;;;;;;;40.40;33.40;;;;;24.77;70.13;99049.41;5098159;28;8862;-76
2022/09/10 05:29:26;;;;;;;;;43.25;36.75;;;;;24.39;71.98;99051.91;5063659;28;8856;-75
2022/09/10 05:31:55;;;;;;;;;44.00;36.00;;;;;23.75;75.40;99061.22;5081217;28;8827;-75
2022/09/10 05:34:25;;;;;;;;;49.25;39.75;;;;;23.90;75.06;99063.91;5080730;28;8848;-78
2022/09/10 05:36:54;;;;;;;;;40.75;36.00;;;;;24.24;73.54;99067.94;5080022;28;8862;-76
2022/09/10 05:39:23;;;;;;;;;40.50;35.75;;;;;24.12;74.44;99076.72;5080791;28;9060;-80
2022/09/10 05:41:54;;;;;;;;;44.50;37.75;;;;;24.24;74.26;99075.09;5081471;28;8867;-78
2022/09/10 05:44:23;;;;;;;;;46.50;39.75;;;;;24.44;72.90;99077.31;5081100;28;9609;-76
2022/09/10 05:46:54;;;;;;;;;39.25;35.00;;;;;24.62;72.08;99074.44;5028650;28;8888;-75
2022/09/10 05:49:22;;;;;;;;;42.00;36.25;;;;;24.91;70.88;99072.47;5080985;28;8854;-76
2022/09/10 05:51:51;;;;;;;;;44.50;38.00;;;;;24.67;71.21;99074.97;5070188;28;8854;-79
2022/09/10 05:54:21;;;;;;;;;38.50;33.25;;;;;24.93;69.51;99073.22;5095400;28;8877;-76
2022/09/10 05:56:50;;;;;;;;;42.50;36.50;;;;;25.10;68.74;99077.41;5068441;28;8850;-78
2022/09/10 05:59:19;;;;;;;;;41.50;34.50;;;;;25.15;68.85;99075.28;5071243;28;8923;-74
2022/09/10 06:01:51;;;;;;;;;44.00;34.00;;;;;24.78;69.75;99088.44;5081398;28;10535;-76
2022/09/10 06:04:23;;;;;;;;;39.50;34.75;;;;;24.73;69.57;99090.56;5071206;28;8854;-78
2022/09/10 06:06:53;;;;;;;;;32.00;29.40;;;;;24.94;69.34;99084.75;5013252;28;8878;-75
2022/09/10 06:09:21;;;;;;;;;36.20;34.00;;;;;24.74;69.81;99089.59;5053144;28;8905;-76
2022/09/10 06:11:57;;;;;;;;;33.80;31.60;;;;;24.68;70.14;99095.34;5068420;28;8889;-76
2022/09/10 06:14:25;;;;;;;;;36.00;27.80;;;;;24.32;71.57;99096.75;5028016;28;8865;-80
2022/09/10 06:16:55;;;;;;;;;37.50;34.00;;;;;23.73;75.13;99105.72;5057190;28;9015;-77
2022/09/10 06:19:28;;;;;;;;;40.50;33.50;;;;;23.17;77.88;99104.72;5045431;28;8851;-70
2022/09/10 06:21:57;;;;;;;;;40.75;34.50;;;;;23.09;79.04;99105.16;5081033;28;8956;-71
2022/09/10 06:24:27;;;;;;;;;32.40;29.00;;;;;23.41;77.61;99102.38;5072188;28;8908;-73
2022/09/10 06:26:58;;;;;;;;;35.00;32.60;;;;;23.43;77.70;99110.28;5044223;28;10175;-71
2022/09/10 06:29:29;;;;;;;;;31.20;30.20;;;;;23.52;76.84;99086.63;5046812;28;8856;-70
2022/09/10 06:31:59;;;;;;;;;35.00;31.80;;;;;23.26;78.09;99090.84;5031317;28;8863;-70
2022/09/10 06:34:29;;;;;;;;;34.60;29.20;;;;;22.92;79.86;99086.66;5028513;28;8925;-70
2022/09/10 06:37:00;;;;;;;;;33.60;31.20;;;;;22.80;80.60;99098.00;5060995;28;8943;-72
2022/09/10 06:39:29;;;;;;;;;28.00;24.00;;;;;22.93;80.25;99097.22;5099446;28;8896;-71
2022/09/10 06:42:00;;;;;;;;;26.20;25.60;;;;;23.21;78.66;99095.59;5080360;28;8886;-70
2022/09/10 06:44:52;;;;;;;;;29.40;28.00;;;;;23.87;75.24;99085.41;5088121;28;9465;-72
2022/09/10 06:47:53;;;;;;;;;24.60;22.60;;;;;24.25;73.33;99080.31;5031026;28;8912;-70
2022/09/10 06:50:53;;;;;;;;;32.20;29.00;;;;;24.41;72.72;99095.31;5029610;28;8944;-73
2022/09/10 06:53:27;;;;;;;;;30.00;26.00;;;;;24.79;71.13;99090.16;5027284;28;9000;-72
2022/09/10 06:55:56;;;;;;;;;26.40;26.40;;;;;25.25;69.41;99100.41;5026782;28;8998;-72
2022/09/10 06:58:27;;;;;;;;;23.80;22.80;;;;;25.78;67.85;99094.13;5041149;28;8962;-76
2022/09/10 07:00:56;;;;;;;;;23.00;22.00;;;;;25.97;66.05;99099.88;5045697;28;9675;-79
2022/09/10 07:03:25;;;;;;;;;16.60;16.20;;;;;25.98;64.96;99093.59;5029783;28;8838;-77
2022/09/10 07:05:56;;;;;;;;;18.00;17.00;;;;;25.87;64.34;99104.16;5031440;28;8850;-78
2022/09/10 07:08:28;;;;;;;;;18.40;16.80;;;;;25.86;64.28;99103.31;4984108;28;8867;-78
2022/09/10 07:11:00;;;;;;;;;13.80;10.20;;;;;25.21;64.48;99096.22;5017160;28;8880;-78
2022/09/10 07:13:31;;;;;;;;;14.80;13.80;;;;;25.18;65.64;99090.22;5016183;28;8850;-77
2022/09/10 07:16:01;;;;;;;;;10.80;10.80;;;;;25.62;65.38;99089.84;5026104;28;8854;-66
2022/09/10 07:18:32;;;;;;;;;10.80;10.80;;;;;25.99;63.78;99092.63;5029175;28;9746;-70
2022/09/10 07:21:12;;;;;;;;;15.00;13.00;;;;;26.39;62.13;99092.41;5043791;28;8850;-68
2022/09/10 07:23:47;;;;;;;;;14.80;12.00;;;;;26.75;60.83;99093.34;5056514;28;8914;-70
2022/09/10 07:26:18;;;;;;;;;13.40;12.40;;;;;26.68;59.39;99091.25;5102574;28;8871;-70
2022/09/10 07:28:52;;;;;;;;;10.80;10.00;;;;;27.27;58.49;99095.75;5087004;28;8878;-71
2022/09/10 07:31:24;;;;;;;;;16.20;13.60;;;;;27.02;57.87;99086.88;5083494;28;9730;-69
2022/09/10 07:33:52;;;;;;;;;10.80;10.80;;;;;27.17;58.19;99100.94;5082066;28;8863;-67
2022/09/10 07:36:23;;;;;;;;;8.60;8.20;;;;;26.04;60.26;99135.91;5098483;28;9669;-68
2022/09/10 07:38:53;;;;;;;;;9.60;9.60;;;;;26.12;61.08;99147.88;5083676;28;8862;-70
2022/09/10 07:41:23;;;;;;;;;9.00;9.00;;;;;26.59;60.46;99135.53;5106271;27;8893;-68
2022/09/10 07:43:54;;;;;;;;;8.60;8.60;;;;;26.71;58.49;99126.66;5105628;28;8862;-69
2022/09/10 07:46:27;;;;;;;;;6.60;5.80;;;;;26.15;61.09;99131.63;5105953;27;8824;-68
2022/09/10 07:48:58;;;;;;;;;5.00;5.00;;;;;26.06;60.85;99131.28;5106568;28;8867;-70
2022/09/10 07:51:31;;;;;;;;;7.40;7.40;;;;;26.92;58.93;99121.53;5105997;28;8840;-68
2022/09/10 07:54:02;;;;;;;;;5.80;5.80;;;;;26.89;58.10;99119.06;5104881;28;8867;-69
2022/09/10 07:56:36;;;;;;;;;7.40;6.40;;;;;26.82;56.64;99099.09;5106152;27;8855;-68
2022/09/10 07:59:07;;;;;;;;;4.40;4.40;;;;;27.31;55.32;99094.53;5083613;27;8865;-72
2022/09/10 08:01:43;;;;;;;;;6.20;5.20;;;;;27.55;54.37;99106.03;5092676;27;9002;-72
2022/09/10 08:04:12;;;;;;;;;3.00;2.60;;;;;27.58;53.73;99111.16;5109614;27;8880;-74
2022/09/10 08:06:43;;;;;;;;;3.60;3.00;;;;;26.82;56.41;99123.16;5085636;28;8876;-74
2022/09/10 08:09:13;;;;;;;;;3.00;3.00;;;;;25.24;60.20;99137.91;5067663;28;8881;-76
2022/09/10 08:11:49;;;;;;;;;2.20;2.20;;;;;24.38;64.60;99140.81;5062351;28;8862;-73
2022/09/10 08:14:20;;;;;;;;;4.00;3.20;;;;;24.13;66.13;99145.03;5074242;28;9015;-72
2022/09/10 08:16:52;;;;;;;;;2.80;2.80;;;;;23.57;67.16;99160.00;5049152;28;8856;-74
2022/09/10 08:19:22;;;;;;;;;4.00;4.00;;;;;23.54;67.70;99159.25;5064716;28;8847;-75
2022/09/10 08:21:53;;;;;;;;;4.20;4.00;;;;;23.54;68.27;99177.88;5019360;28;8846;-75
2022/09/10 08:24:28;;;;;;;;;3.00;3.00;;;;;22.84;70.77;99182.00;5029500;28;8814;-74
2022/09/10 08:26:57;;;;;;;;;4.60;4.60;;;;;22.68;71.49;99182.81;5045863;28;8866;-74
2022/09/10 08:29:27;;;;;;;;;4.00;3.20;;;;;23.10;70.55;99176.06;5029616;28;9033;-72
2022/09/10 08:31:58;;;;;;;;;4.40;4.40;;;;;22.97;70.94;99175.88;5029533;28;8980;-72
2022/09/10 08:34:31;;;;;;;;;5.80;4.80;;;;;22.84;70.90;99188.16;5045238;28;8894;-74
2022/09/10 08:37:07;;;;;;;;;6.60;6.60;;;;;23.09;71.32;99168.16;5036767;28;8854;-72
2022/09/10 08:39:37;;;;;;;;;5.80;5.80;;;;;23.53;69.74;99169.97;5072003;28;8862;-76
2022/09/10 08:42:15;;;;;;;;;5.60;4.80;;;;;23.99;67.80;99166.34;5067647;28;8886;-73
2022/09/10 08:44:49;;;;;;;;;6.60;4.20;;;;;23.78;68.38;99177.38;5067020;28;8984;-74
2022/09/10 08:47:29;;;;;;;;;3.80;3.80;;;;;23.82;67.59;99180.69;5051209;28;8860;-72
2022/09/10 08:50:12;;;;;;;;;5.20;5.20;;;;;24.02;66.82;99174.16;5048584;28;9645;-73
2022/09/10 08:52:48;;;;;;;;;3.20;3.20;;;;;24.06;66.10;99176.53;5054014;28;8862;-74
2022/09/10 08:55:31;;;;;;;;;6.40;6.40;;;;;24.44;65.64;99175.06;5050860;28;8862;-73
2022/09/10 08:58:11;;;;;;;;;2.60;2.60;;;;;24.67;63.99;99182.50;5083713;28;8846;-74
2022/09/10 09:00:44;;;;;;;;;5.80;4.80;;;;;24.69;64.00;99169.06;5067989;28;8870;-74
2022/09/10 09:03:23;;;;;;;;;6.20;5.80;;;;;24.66;64.78;99170.09;5082916;28;8958;-77
2022/09/10 09:05:54;;;;;;;;;5.40;5.40;;;;;24.58;64.50;99169.75;5082746;28;8857;-73
2022/09/10 09:08:36;;;;;;;;;4.60;4.40;;;;;24.83;62.78;99178.81;5066666;28;8830;-75
2022/09/10 09:11:16;;;;;;;;;3.40;3.40;;;;;24.82;62.75;99188.66;5061627;28;9046;-75
2022/09/10 09:14:08;;;;;;;;;6.00;6.00;;;;;24.81;61.75;99186.91;5028233;28;8955;-77
2022/09/10 09:16:53;;;;;;;;;5.00;5.00;;;;;25.14;62.17;99177.66;5028060;28;8941;-74
2022/09/10 09:19:30;;;;;;;;;6.00;6.00;;;;;24.54;62.87;99181.56;5044450;28;8857;-77
2022/09/10 09:22:10;;;;;;;;;3.80;3.80;;;;;24.37;63.54;99176.44;5047247;28;8872;-75
2022/09/10 09:24:51;;;;;;;;;5.60;5.60;;;;;23.99;66.08;99179.66;5031399;28;8982;-73
2022/09/10 09:27:20;;;;;;;;;5.40;4.80;;;;;24.22;65.66;99175.59;5044697;28;8841;-74
2022/09/10 09:29:56;;;;;;;;;5.60;4.80;;;;;25.06;61.86;99162.13;5028191;28;8997;-75
2022/09/10 09:32:26;;;;;;;;;5.20;5.20;;;;;25.02;61.42;99167.78;5028660;28;8974;-74
2022/09/10 09:35:02;;;;;;;;;9.00;8.60;;;;;24.89;61.71;99173.91;5045239;28;9626;-74
2022/09/10 09:37:33;;;;;;;;;5.60;5.60;;;;;24.22;63.56;99175.59;5028743;28;9086;-72
2022/09/10 09:40:14;;;;;;;;;6.00;6.00;;;;;24.97;61.61;99168.13;5044105;28;8834;-78
2022/09/10 09:42:51;;;;;;;;;6.20;6.20;;;;;25.31;60.73;99163.19;5068833;28;8858;-73
2022/09/10 09:45:27;;;;;;;;;6.40;6.40;;;;;25.96;58.56;99161.47;5065969;28;8939;-75
2022/09/10 09:47:56;;;;;;;;;7.60;6.80;;;;;25.70;59.46;99165.94;5084003;28;8874;-75
2022/09/10 09:50:25;;;;;;;;;7.00;6.60;;;;;25.04;60.97;99171.22;5084628;28;8933;-77
2022/09/10 09:52:56;;;;;;;;;7.00;5.00;;;;;24.65;62.39;99175.53;5087506;28;8862;-75
2022/09/10 09:55:32;;;;;;;;;5.00;5.00;;;;;24.31;62.79;99173.19;5097031;28;8852;-74
2022/09/10 09:58:27;;;;;;;;;7.40;6.00;;;;;24.09;64.02;99165.69;5082656;28;8839;-75
2022/09/10 10:01:11;;;;;;;;;6.40;6.00;;;;;24.12;63.12;99181.50;5081189;28;8900;-79
2022/09/10 10:03:50;;;;;;;;;5.80;5.00;;;;;24.45;61.24;99163.47;5049618;28;8870;-79
2022/09/10 10:06:22;;;;;;;;;8.20;8.20;;;;;24.71;60.51;99160.00;5082498;28;9000;-79
2022/09/10 10:08:57;;;;;;;;;5.00;4.80;;;;;24.47;61.21;99149.06;5065790;28;8842;-75
2022/09/10 10:11:48;;;;;;;;;6.40;6.40;;;;;25.00;58.99;99151.03;5066477;28;8882;-77
2022/09/10 10:14:34;;;;;;;;;4.40;4.20;;;;;25.50;57.46;99144.13;5049806;28;8977;-77
2022/09/10 10:17:02;;;;;;;;;8.00;8.00;;;;;25.63;56.54;99144.13;5084795;28;9012;-76
2022/09/10 10:19:34;;;;;;;;;9.20;7.40;;;;;25.72;55.99;99151.50;5070005;28;8914;-76
2022/09/10 10:22:24;;;;;;;;;5.00;4.40;;;;;25.91;53.70;99142.19;5087493;28;9001;-77
2022/09/10 10:24:54;;;;;;;;;5.80;5.00;;;;;25.34;54.79;99159.47;5087512;28;8884;-78
2022/09/10 10:27:31;;;;;;;;;3.20;3.20;;;;;25.17;56.30;99148.09;5070088;28;8888;-75
2022/09/10 10:30:04;;;;;;;;;4.00;4.00;;;;;25.66;55.55;99151.94;5070780;28;8863;-76
2022/09/10 10:32:43;;;;;;;;;6.20;5.80;;;;;25.35;56.43;99146.03;5053400;28;8918;-76
2022/09/10 10:35:31;;;;;;;;;8.60;8.60;;;;;25.76;55.68;99154.81;5086331;28;8858;-77
2022/09/10 10:38:25;;;;;;;;;3.20;3.20;;;;;25.66;54.96;99157.28;5080775;28;8878;-78
2022/09/10 10:41:08;;;;;;;;;4.80;4.60;;;;;25.09;56.05;99164.63;5068238;28;9586;-76
2022/09/10 10:43:49;;;;;;;;;5.00;5.00;;;;;25.29;54.18;99149.97;5090013;28;8832;-77
2022/09/10 10:46:20;;;;;;;;;7.40;7.00;;;;;25.85;52.34;99148.81;5088516;28;8864;-80
2022/09/10 10:49:01;;;;;;;;;5.40;4.60;;;;;25.95;52.87;99149.91;5089695;28;9018;-78
2022/09/10 10:51:45;;;;;;;;;4.80;4.80;;;;;26.00;52.61;99145.09;5104356;28;8847;-78
2022/09/10 10:54:34;;;;;;;;;5.00;5.00;;;;;26.17;51.98;99135.03;5087442;28;8859;-76
2022/09/10 10:57:16;;;;;;;;;5.60;5.60;;;;;26.21;50.45;99136.53;5084102;28;9643;-77
2022/09/10 10:59:54;;;;;;;;;8.20;6.40;;;;;26.52;49.78;99136.97;5089240;28;8969;-77
2022/09/10 11:02:37;;;;;;;;;5.00;5.00;;;;;26.59;50.25;99139.09;5086687;28;8824;-78
2022/09/10 11:05:19;;;;;;;;;6.00;5.00;;;;;26.94;49.54;99134.81;5105985;28;8882;-75
2022/09/10 11:07:49;;;;;;;;;3.00;3.00;;;;;25.74;52.56;99138.88;5091367;28;8943;-75
2022/09/10 11:10:24;;;;;;;;;4.20;4.20;;;;;25.63;53.23;99146.78;5090555;28;9593;-75
2022/09/10 11:13:03;;;;;;;;;7.00;7.00;;;;;26.38;51.45;99136.16;5038927;28;8885;-74
2022/09/10 11:15:41;;;;;;;;;4.20;4.20;;;;;26.74;48.06;99129.09;5088700;28;8836;-75
2022/09/10 11:18:18;;;;;;;;;7.20;4.80;;;;;27.03;48.18;99128.72;5090019;28;9683;-73
2022/09/10 11:20:58;;;;;;;;;7.60;6.20;;;;;25.95;51.09;99144.56;5090699;28;8849;-78
2022/09/10 11:23:32;;;;;;;;;4.60;3.00;;;;;25.67;51.08;99137.59;5086306;28;8855;-74
2022/09/10 11:26:07;;;;;;;;;8.40;8.40;;;;;26.00;50.50;99142.44;5089557;28;8848;-75
2022/09/10 11:28:41;;;;;;;;;4.00;4.00;;;;;26.26;48.69;99137.06;5087522;28;8950;-73
2022/09/10 11:31:17;;;;;;;;;5.40;5.40;;;;;26.57;47.22;99130.31;5089175;28;8886;-76
2022/09/10 11:33:55;;;;;;;;;4.20;4.20;;;;;26.66;46.78;99136.00;5087450;28;9033;-76
2022/09/10 11:36:30;;;;;;;;;6.00;4.60;;;;;26.66;47.25;99126.13;5088182;28;8943;-75
2022/09/10 11:39:10;;;;;;;;;2.60;2.00;;;;;27.13;46.76;99123.56;5090037;28;8879;-75
2022/09/10 11:41:42;;;;;;;;;5.00;4.00;;;;;27.35;45.90;99120.09;5089937;28;8848;-75
2022/09/10 11:44:26;;;;;;;;;5.00;5.00;;;;;27.65;45.26;99121.38;5089641;28;8901;-78
2022/09/10 11:47:04;;;;;;;;;5.40;5.40;;;;;27.16;45.60;99134.84;5089844;28;8836;-76
2022/09/10 11:49:42;;;;;;;;;6.40;6.40;;;;;27.18;46.22;99132.06;5090107;28;9604;-77
2022/09/10 11:52:11;;;;;;;;;6.40;6.40;;;;;27.10;44.76;99124.63;5089334;28;8867;-72
2022/09/10 11:54:41;;;;;;;;;8.80;8.20;;;;;27.33;45.26;99117.53;5089208;28;8893;-74
2022/09/10 11:57:22;;;;;;;;;7.80;7.40;;;;;27.77;43.91;99115.06;5089040;28;9546;-76
2022/09/10 12:00:05;;;;;;;;;7.00;6.00;;;;;26.98;45.44;99125.56;5087921;28;8851;-77
2022/09/10 12:03:10;;;;;;;;;5.20;5.20;;;;;26.74;46.83;99114.88;5088979;28;8843;-72